sensor_id;sensor_type;location;lat;lon;timestamp;P1;durP1;ratioP1;P2;durP2;ratioP2
71730;SDS011;65964;43.496;3.710;2023-12-22T00:01:14;4.85;;;1.40;;
71730;SDS011;65964;43.496;3.710;2023-12-22T00:03:41;1.38;;;1.00;;
71730;SDS011;65964;43.496;3.710;2023-12-22T00:06:08;2.75;;;1.10;;
71730;SDS011;65964;43.496;3.710;2023-12-22T00:08:34;1.58;;;1.10;;
71730;SDS011;65964;43.496;3.710;2023-12-22T00:11:00;5.22;;;2.20;;
71730;SDS011;65964;43.496;3.710;2023-12-22T00:13:26;4.43;;;2.38;;
71730;SDS011;65964;43.496;3.710;2023-12-22T00:15:52;3.28;;;1.90;;
71730;SDS011;65964;43.496;3.710;2023-12-22T00:18:18;5.80;;;2.33;;
71730;SDS011;65964;43.496;3.710;2023-12-22T00:20:44;4.75;;;2.50;;
71730;SDS011;65964;43.496;3.710;2023-12-22T00:23:10;4.15;;;2.30;;
71730;SDS011;65964;43.496;3.710;2023-12-22T00:25:36;2.30;;;1.70;;
71730;SDS011;65964;43.496;3.710;2023-12-22T00:28:03;3.35;;;2.03;;
71730;SDS011;65964;43.496;3.710;2023-12-22T00:30:29;5.57;;;3.20;;
71730;SDS011;65964;43.496;3.710;2023-12-22T00:32:55;3.55;;;2.13;;
71730;SDS011;65964;43.496;3.710;2023-12-22T00:35:21;3.90;;;1.80;;
71730;SDS011;65964;43.496;3.710;2023-12-22T00:37:47;1.30;;;1.20;;
71730;SDS011;65964;43.496;3.710;2023-12-22T00:40:13;3.00;;;1.45;;
71730;SDS011;65964;43.496;3.710;2023-12-22T00:42:39;0.80;;;0.80;;
71730;SDS011;65964;43.496;3.710;2023-12-22T00:45:05;1.52;;;1.20;;
71730;SDS011;65964;43.496;3.710;2023-12-22T00:47:31;2.50;;;1.10;;
71730;SDS011;65964;43.496;3.710;2023-12-22T00:50:00;6.75;;;1.50;;
71730;SDS011;65964;43.496;3.710;2023-12-22T00:52:27;3.15;;;1.30;;
71730;SDS011;65964;43.496;3.710;2023-12-22T00:54:53;1.05;;;0.95;;
71730;SDS011;65964;43.496;3.710;2023-12-22T00:57:19;1.02;;;0.93;;
71730;SDS011;65964;43.496;3.710;2023-12-22T00:59:45;3.10;;;1.15;;
71730;SDS011;65964;43.496;3.710;2023-12-22T01:02:15;2.35;;;0.80;;
71730;SDS011;65964;43.496;3.710;2023-12-22T01:04:41;1.40;;;0.80;;
71730;SDS011;65964;43.496;3.710;2023-12-22T01:07:08;3.38;;;0.85;;
71730;SDS011;65964;43.496;3.710;2023-12-22T01:09:34;1.65;;;0.80;;
71730;SDS011;65964;43.496;3.710;2023-12-22T01:12:01;3.50;;;1.20;;
71730;SDS011;65964;43.496;3.710;2023-12-22T01:14:30;1.25;;;0.80;;
71730;SDS011;65964;43.496;3.710;2023-12-22T01:16:56;1.38;;;0.80;;
71730;SDS011;65964;43.496;3.710;2023-12-22T01:19:24;1.88;;;0.80;;
71730;SDS011;65964;43.496;3.710;2023-12-22T01:21:50;2.85;;;0.77;;
71730;SDS011;65964;43.496;3.710;2023-12-22T01:24:16;1.58;;;1.08;;
71730;SDS011;65964;43.496;3.710;2023-12-22T01:26:42;2.58;;;0.70;;
71730;SDS011;65964;43.496;3.710;2023-12-22T01:29:08;1.75;;;0.63;;
71730;SDS011;65964;43.496;3.710;2023-12-22T01:31:34;2.50;;;0.65;;
71730;SDS011;65964;43.496;3.710;2023-12-22T01:34:00;1.23;;;0.70;;
71730;SDS011;65964;43.496;3.710;2023-12-22T01:36:26;2.05;;;0.63;;
71730;SDS011;65964;43.496;3.710;2023-12-22T01:38:52;1.20;;;0.55;;
71730;SDS011;65964;43.496;3.710;2023-12-22T01:41:18;1.85;;;0.60;;
71730;SDS011;65964;43.496;3.710;2023-12-22T01:43:44;2.40;;;0.68;;
71730;SDS011;65964;43.496;3.710;2023-12-22T01:46:10;0.80;;;0.50;;
71730;SDS011;65964;43.496;3.710;2023-12-22T01:48:37;0.98;;;0.55;;
71730;SDS011;65964;43.496;3.710;2023-12-22T01:51:03;1.60;;;0.60;;
71730;SDS011;65964;43.496;3.710;2023-12-22T01:53:29;0.55;;;0.43;;
71730;SDS011;65964;43.496;3.710;2023-12-22T01:55:56;1.15;;;0.55;;
71730;SDS011;65964;43.496;3.710;2023-12-22T01:58:24;1.80;;;0.60;;
71730;SDS011;65964;43.496;3.710;2023-12-22T02:00:52;0.47;;;0.47;;
71730;SDS011;65964;43.496;3.710;2023-12-22T02:03:18;0.60;;;0.40;;
71730;SDS011;65964;43.496;3.710;2023-12-22T02:05:44;0.60;;;0.60;;
71730;SDS011;65964;43.496;3.710;2023-12-22T02:08:11;0.40;;;0.40;;
71730;SDS011;65964;43.496;3.710;2023-12-22T02:10:38;0.55;;;0.50;;
71730;SDS011;65964;43.496;3.710;2023-12-22T02:13:04;0.43;;;0.43;;
71730;SDS011;65964;43.496;3.710;2023-12-22T02:15:31;0.57;;;0.50;;
71730;SDS011;65964;43.496;3.710;2023-12-22T02:18:02;0.50;;;0.35;;
71730;SDS011;65964;43.496;3.710;2023-12-22T02:20:30;1.15;;;0.50;;
71730;SDS011;65964;43.496;3.710;2023-12-22T02:22:57;0.85;;;0.47;;
71730;SDS011;65964;43.496;3.710;2023-12-22T02:25:23;1.02;;;0.60;;
71730;SDS011;65964;43.496;3.710;2023-12-22T02:27:50;0.55;;;0.50;;
71730;SDS011;65964;43.496;3.710;2023-12-22T02:30:23;2.10;;;0.70;;
71730;SDS011;65964;43.496;3.710;2023-12-22T02:32:51;0.77;;;0.50;;
71730;SDS011;65964;43.496;3.710;2023-12-22T02:35:19;0.70;;;0.55;;
71730;SDS011;65964;43.496;3.710;2023-12-22T02:37:46;1.27;;;0.40;;
71730;SDS011;65964;43.496;3.710;2023-12-22T02:40:12;6.35;;;1.10;;
71730;SDS011;65964;43.496;3.710;2023-12-22T02:42:40;2.22;;;0.60;;
71730;SDS011;65964;43.496;3.710;2023-12-22T02:45:06;0.98;;;0.70;;
71730;SDS011;65964;43.496;3.710;2023-12-22T02:47:32;1.15;;;0.55;;
71730;SDS011;65964;43.496;3.710;2023-12-22T02:49:58;1.35;;;0.60;;
71730;SDS011;65964;43.496;3.710;2023-12-22T02:52:24;2.60;;;0.60;;
71730;SDS011;65964;43.496;3.710;2023-12-22T02:54:50;0.40;;;0.40;;
71730;SDS011;65964;43.496;3.710;2023-12-22T02:57:16;0.38;;;0.38;;
71730;SDS011;65964;43.496;3.710;2023-12-22T02:59:42;0.30;;;0.30;;
71730;SDS011;65964;43.496;3.710;2023-12-22T03:02:08;0.93;;;0.63;;
71730;SDS011;65964;43.496;3.710;2023-12-22T03:04:34;0.63;;;0.47;;
71730;SDS011;65964;43.496;3.710;2023-12-22T03:07:00;0.50;;;0.50;;
71730;SDS011;65964;43.496;3.710;2023-12-22T03:09:26;0.60;;;0.60;;
71730;SDS011;65964;43.496;3.710;2023-12-22T03:11:52;1.00;;;0.68;;
71730;SDS011;65964;43.496;3.710;2023-12-22T03:14:19;1.95;;;0.60;;
71730;SDS011;65964;43.496;3.710;2023-12-22T03:16:45;2.50;;;0.40;;
71730;SDS011;65964;43.496;3.710;2023-12-22T03:19:11;1.65;;;0.43;;
71730;SDS011;65964;43.496;3.710;2023-12-22T03:21:37;1.23;;;0.50;;
71730;SDS011;65964;43.496;3.710;2023-12-22T03:24:03;2.67;;;0.98;;
71730;SDS011;65964;43.496;3.710;2023-12-22T03:26:48;0.73;;;0.50;;
71730;SDS011;65964;43.496;3.710;2023-12-22T03:29:14;1.23;;;0.50;;
71730;SDS011;65964;43.496;3.710;2023-12-22T03:31:41;2.95;;;1.02;;
71730;SDS011;65964;43.496;3.710;2023-12-22T03:34:07;0.70;;;0.45;;
71730;SDS011;65964;43.496;3.710;2023-12-22T03:36:33;0.50;;;0.50;;
71730;SDS011;65964;43.496;3.710;2023-12-22T03:38:59;1.75;;;0.70;;
71730;SDS011;65964;43.496;3.710;2023-12-22T03:41:25;0.70;;;0.70;;
71730;SDS011;65964;43.496;3.710;2023-12-22T03:43:51;0.50;;;0.50;;
71730;SDS011;65964;43.496;3.710;2023-12-22T03:46:17;2.72;;;0.75;;
71730;SDS011;65964;43.496;3.710;2023-12-22T03:48:43;0.43;;;0.43;;
71730;SDS011;65964;43.496;3.710;2023-12-22T03:51:09;1.20;;;0.57;;
71730;SDS011;65964;43.496;3.710;2023-12-22T03:53:37;0.63;;;0.57;;
71730;SDS011;65964;43.496;3.710;2023-12-22T03:56:03;1.15;;;0.65;;
71730;SDS011;65964;43.496;3.710;2023-12-22T03:58:29;1.70;;;0.85;;
71730;SDS011;65964;43.496;3.710;2023-12-22T04:00:55;0.63;;;0.60;;
71730;SDS011;65964;43.496;3.710;2023-12-22T04:03:21;1.35;;;0.68;;
71730;SDS011;65964;43.496;3.710;2023-12-22T04:05:47;0.85;;;0.60;;
71730;SDS011;65964;43.496;3.710;2023-12-22T04:08:13;5.65;;;1.30;;
71730;SDS011;65964;43.496;3.710;2023-12-22T04:10:39;1.08;;;0.80;;
71730;SDS011;65964;43.496;3.710;2023-12-22T04:13:05;1.05;;;0.90;;
71730;SDS011;65964;43.496;3.710;2023-12-22T04:15:32;11.00;;;1.55;;
71730;SDS011;65964;43.496;3.710;2023-12-22T04:17:58;2.15;;;1.05;;
71730;SDS011;65964;43.496;3.710;2023-12-22T04:20:24;2.60;;;0.68;;
71730;SDS011;65964;43.496;3.710;2023-12-22T04:22:50;1.67;;;0.80;;
71730;SDS011;65964;43.496;3.710;2023-12-22T04:25:16;1.13;;;0.52;;
71730;SDS011;65964;43.496;3.710;2023-12-22T04:27:43;1.33;;;0.90;;
71730;SDS011;65964;43.496;3.710;2023-12-22T04:30:09;2.45;;;1.10;;
71730;SDS011;65964;43.496;3.710;2023-12-22T04:32:36;0.63;;;0.63;;
71730;SDS011;65964;43.496;3.710;2023-12-22T04:35:02;2.47;;;1.10;;
71730;SDS011;65964;43.496;3.710;2023-12-22T04:37:28;1.58;;;0.70;;
71730;SDS011;65964;43.496;3.710;2023-12-22T04:39:54;2.80;;;0.80;;
71730;SDS011;65964;43.496;3.710;2023-12-22T04:42:20;2.17;;;0.75;;
71730;SDS011;65964;43.496;3.710;2023-12-22T04:44:46;2.40;;;1.13;;
71730;SDS011;65964;43.496;3.710;2023-12-22T04:47:12;1.23;;;1.00;;
71730;SDS011;65964;43.496;3.710;2023-12-22T04:49:41;2.38;;;0.93;;
71730;SDS011;65964;43.496;3.710;2023-12-22T04:52:07;1.75;;;1.10;;
71730;SDS011;65964;43.496;3.710;2023-12-22T04:54:33;2.75;;;1.23;;
71730;SDS011;65964;43.496;3.710;2023-12-22T04:56:59;2.92;;;0.52;;
71730;SDS011;65964;43.496;3.710;2023-12-22T04:59:25;3.30;;;0.80;;
71730;SDS011;65964;43.496;3.710;2023-12-22T05:01:51;1.60;;;1.08;;
71730;SDS011;65964;43.496;3.710;2023-12-22T05:04:17;2.90;;;1.90;;
71730;SDS011;65964;43.496;3.710;2023-12-22T05:06:43;3.63;;;1.70;;
71730;SDS011;65964;43.496;3.710;2023-12-22T05:09:10;1.55;;;1.42;;
71730;SDS011;65964;43.496;3.710;2023-12-22T05:11:37;9.43;;;1.27;;
71730;SDS011;65964;43.496;3.710;2023-12-22T05:14:03;2.67;;;0.70;;
71730;SDS011;65964;43.496;3.710;2023-12-22T05:16:29;2.45;;;0.90;;
71730;SDS011;65964;43.496;3.710;2023-12-22T05:18:57;3.28;;;0.90;;
71730;SDS011;65964;43.496;3.710;2023-12-22T05:21:23;1.25;;;0.70;;
71730;SDS011;65964;43.496;3.710;2023-12-22T05:23:49;2.58;;;0.70;;
71730;SDS011;65964;43.496;3.710;2023-12-22T05:26:21;1.88;;;0.80;;
71730;SDS011;65964;43.496;3.710;2023-12-22T05:28:47;0.57;;;0.57;;
71730;SDS011;65964;43.496;3.710;2023-12-22T05:31:17;1.88;;;1.00;;
71730;SDS011;65964;43.496;3.710;2023-12-22T05:33:44;0.98;;;0.70;;
71730;SDS011;65964;43.496;3.710;2023-12-22T05:36:10;4.25;;;1.20;;
71730;SDS011;65964;43.496;3.710;2023-12-22T05:38:39;4.70;;;1.10;;
71730;SDS011;65964;43.496;3.710;2023-12-22T05:41:05;1.63;;;1.00;;
71730;SDS011;65964;43.496;3.710;2023-12-22T05:43:32;1.05;;;0.60;;
71730;SDS011;65964;43.496;3.710;2023-12-22T05:46:01;1.88;;;0.82;;
71730;SDS011;65964;43.496;3.710;2023-12-22T05:48:27;2.72;;;0.90;;
71730;SDS011;65964;43.496;3.710;2023-12-22T05:50:53;3.17;;;1.40;;
71730;SDS011;65964;43.496;3.710;2023-12-22T05:53:19;2.80;;;1.05;;
71730;SDS011;65964;43.496;3.710;2023-12-22T05:55:45;2.63;;;1.08;;
71730;SDS011;65964;43.496;3.710;2023-12-22T05:58:11;5.05;;;1.60;;
71730;SDS011;65964;43.496;3.710;2023-12-22T06:00:37;3.63;;;1.45;;
71730;SDS011;65964;43.496;3.710;2023-12-22T06:03:03;4.00;;;1.38;;
71730;SDS011;65964;43.496;3.710;2023-12-22T06:05:30;2.95;;;1.20;;
71730;SDS011;65964;43.496;3.710;2023-12-22T06:07:56;4.50;;;1.50;;
71730;SDS011;65964;43.496;3.710;2023-12-22T06:10:22;3.03;;;1.20;;
71730;SDS011;65964;43.496;3.710;2023-12-22T06:12:48;3.20;;;1.20;;
71730;SDS011;65964;43.496;3.710;2023-12-22T06:15:14;4.53;;;1.10;;
71730;SDS011;65964;43.496;3.710;2023-12-22T06:17:40;6.05;;;1.52;;
71730;SDS011;65964;43.496;3.710;2023-12-22T06:20:07;6.40;;;1.50;;
71730;SDS011;65964;43.496;3.710;2023-12-22T06:22:33;3.58;;;1.30;;
71730;SDS011;65964;43.496;3.710;2023-12-22T06:24:59;2.85;;;1.10;;
71730;SDS011;65964;43.496;3.710;2023-12-22T06:27:26;4.57;;;1.10;;
71730;SDS011;65964;43.496;3.710;2023-12-22T06:29:52;4.07;;;1.85;;
71730;SDS011;65964;43.496;3.710;2023-12-22T06:32:18;3.00;;;1.20;;
71730;SDS011;65964;43.496;3.710;2023-12-22T06:34:44;3.83;;;1.00;;
71730;SDS011;65964;43.496;3.710;2023-12-22T06:37:09;3.60;;;2.13;;
71730;SDS011;65964;43.496;3.710;2023-12-22T06:39:36;7.78;;;3.65;;
71730;SDS011;65964;43.496;3.710;2023-12-22T06:42:02;8.05;;;3.25;;
71730;SDS011;65964;43.496;3.710;2023-12-22T06:44:30;7.85;;;2.47;;
71730;SDS011;65964;43.496;3.710;2023-12-22T06:46:56;10.35;;;3.78;;
71730;SDS011;65964;43.496;3.710;2023-12-22T06:49:22;8.82;;;2.80;;
71730;SDS011;65964;43.496;3.710;2023-12-22T06:51:48;5.05;;;1.70;;
71730;SDS011;65964;43.496;3.710;2023-12-22T06:54:14;4.18;;;1.90;;
71730;SDS011;65964;43.496;3.710;2023-12-22T06:56:40;3.20;;;1.80;;
71730;SDS011;65964;43.496;3.710;2023-12-22T06:59:06;4.97;;;1.60;;
71730;SDS011;65964;43.496;3.710;2023-12-22T07:01:33;2.92;;;1.25;;
71730;SDS011;65964;43.496;3.710;2023-12-22T07:04:00;4.78;;;1.88;;
71730;SDS011;65964;43.496;3.710;2023-12-22T07:06:28;4.18;;;1.25;;
71730;SDS011;65964;43.496;3.710;2023-12-22T07:11:39;3.58;;;1.27;;
71730;SDS011;65964;43.496;3.710;2023-12-22T07:14:05;3.33;;;1.08;;
71730;SDS011;65964;43.496;3.710;2023-12-22T07:16:32;1.88;;;1.10;;
71730;SDS011;65964;43.496;3.710;2023-12-22T07:18:58;20.27;;;3.13;;
71730;SDS011;65964;43.496;3.710;2023-12-22T07:21:24;23.67;;;3.28;;
71730;SDS011;65964;43.496;3.710;2023-12-22T07:23:50;4.03;;;1.08;;
71730;SDS011;65964;43.496;3.710;2023-12-22T07:26:16;1.95;;;1.00;;
71730;SDS011;65964;43.496;3.710;2023-12-22T07:28:42;2.95;;;1.00;;
71730;SDS011;65964;43.496;3.710;2023-12-22T07:31:08;3.42;;;1.17;;
71730;SDS011;65964;43.496;3.710;2023-12-22T07:33:34;4.57;;;1.35;;
71730;SDS011;65964;43.496;3.710;2023-12-22T07:36:00;3.95;;;1.20;;
71730;SDS011;65964;43.496;3.710;2023-12-22T07:38:27;3.03;;;1.10;;
71730;SDS011;65964;43.496;3.710;2023-12-22T07:40:53;4.32;;;1.50;;
71730;SDS011;65964;43.496;3.710;2023-12-22T07:43:19;2.80;;;1.25;;
71730;SDS011;65964;43.496;3.710;2023-12-22T07:45:45;5.80;;;1.63;;
71730;SDS011;65964;43.496;3.710;2023-12-22T07:48:12;3.15;;;1.17;;
71730;SDS011;65964;43.496;3.710;2023-12-22T07:50:39;3.63;;;1.52;;
71730;SDS011;65964;43.496;3.710;2023-12-22T07:53:07;1.80;;;1.00;;
71730;SDS011;65964;43.496;3.710;2023-12-22T07:55:33;5.35;;;1.50;;
71730;SDS011;65964;43.496;3.710;2023-12-22T07:57:59;4.50;;;1.40;;
71730;SDS011;65964;43.496;3.710;2023-12-22T08:00:25;2.50;;;1.13;;
71730;SDS011;65964;43.496;3.710;2023-12-22T08:02:51;3.38;;;0.90;;
71730;SDS011;65964;43.496;3.710;2023-12-22T08:05:17;2.00;;;0.90;;
71730;SDS011;65964;43.496;3.710;2023-12-22T08:07:44;8.25;;;1.40;;
71730;SDS011;65964;43.496;3.710;2023-12-22T08:10:10;3.72;;;1.45;;
71730;SDS011;65964;43.496;3.710;2023-12-22T08:12:36;4.03;;;2.20;;
71730;SDS011;65964;43.496;3.710;2023-12-22T08:15:02;2.42;;;1.10;;
71730;SDS011;65964;43.496;3.710;2023-12-22T08:17:29;2.42;;;1.27;;
71730;SDS011;65964;43.496;3.710;2023-12-22T08:19:55;3.50;;;1.00;;
71730;SDS011;65964;43.496;3.710;2023-12-22T08:22:22;5.30;;;2.10;;
71730;SDS011;65964;43.496;3.710;2023-12-22T08:24:48;1.92;;;1.08;;
71730;SDS011;65964;43.496;3.710;2023-12-22T08:27:14;5.85;;;2.50;;
71730;SDS011;65964;43.496;3.710;2023-12-22T08:29:40;3.45;;;1.90;;
71730;SDS011;65964;43.496;3.710;2023-12-22T08:32:06;3.25;;;1.40;;
71730;SDS011;65964;43.496;3.710;2023-12-22T08:34:32;2.50;;;1.08;;
71730;SDS011;65964;43.496;3.710;2023-12-22T08:36:58;2.78;;;1.05;;
71730;SDS011;65964;43.496;3.710;2023-12-22T08:39:25;2.20;;;1.08;;
71730;SDS011;65964;43.496;3.710;2023-12-22T08:41:51;1.40;;;1.00;;
71730;SDS011;65964;43.496;3.710;2023-12-22T08:44:18;4.18;;;1.30;;
71730;SDS011;65964;43.496;3.710;2023-12-22T08:46:44;2.72;;;0.90;;
71730;SDS011;65964;43.496;3.710;2023-12-22T08:49:10;1.30;;;1.10;;
71730;SDS011;65964;43.496;3.710;2023-12-22T08:51:36;1.38;;;0.90;;
71730;SDS011;65964;43.496;3.710;2023-12-22T08:54:02;1.65;;;0.98;;
71730;SDS011;65964;43.496;3.710;2023-12-22T08:56:31;1.77;;;0.90;;
71730;SDS011;65964;43.496;3.710;2023-12-22T08:58:57;1.35;;;1.05;;
71730;SDS011;65964;43.496;3.710;2023-12-22T09:01:26;6.50;;;1.60;;
71730;SDS011;65964;43.496;3.710;2023-12-22T09:03:52;2.63;;;1.17;;
71730;SDS011;65964;43.496;3.710;2023-12-22T09:06:19;4.28;;;1.58;;
71730;SDS011;65964;43.496;3.710;2023-12-22T09:08:45;2.42;;;1.20;;
71730;SDS011;65964;43.496;3.710;2023-12-22T09:11:12;5.28;;;1.30;;
71730;SDS011;65964;43.496;3.710;2023-12-22T09:13:39;1.15;;;1.00;;
71730;SDS011;65964;43.496;3.710;2023-12-22T09:16:06;5.70;;;1.10;;
71730;SDS011;65964;43.496;3.710;2023-12-22T09:18:32;5.97;;;1.33;;
71730;SDS011;65964;43.496;3.710;2023-12-22T09:20:58;2.70;;;1.10;;
71730;SDS011;65964;43.496;3.710;2023-12-22T09:23:24;2.08;;;1.40;;
71730;SDS011;65964;43.496;3.710;2023-12-22T09:25:50;3.92;;;0.95;;
71730;SDS011;65964;43.496;3.710;2023-12-22T09:28:16;3.47;;;1.17;;
71730;SDS011;65964;43.496;3.710;2023-12-22T09:30:42;2.95;;;1.02;;
71730;SDS011;65964;43.496;3.710;2023-12-22T09:33:09;2.17;;;1.02;;
71730;SDS011;65964;43.496;3.710;2023-12-22T09:35:35;3.40;;;1.08;;
71730;SDS011;65964;43.496;3.710;2023-12-22T09:38:01;3.45;;;1.00;;
71730;SDS011;65964;43.496;3.710;2023-12-22T09:40:27;2.00;;;0.93;;
71730;SDS011;65964;43.496;3.710;2023-12-22T09:42:57;5.82;;;1.52;;
71730;SDS011;65964;43.496;3.710;2023-12-22T09:45:23;2.85;;;1.50;;
71730;SDS011;65964;43.496;3.710;2023-12-22T09:47:50;7.10;;;1.40;;
71730;SDS011;65964;43.496;3.710;2023-12-22T09:50:19;4.22;;;1.40;;
71730;SDS011;65964;43.496;3.710;2023-12-22T09:52:45;1.55;;;0.98;;
71730;SDS011;65964;43.496;3.710;2023-12-22T09:55:15;1.85;;;0.80;;
71730;SDS011;65964;43.496;3.710;2023-12-22T09:57:42;2.72;;;1.08;;
71730;SDS011;65964;43.496;3.710;2023-12-22T10:00:09;1.77;;;0.77;;
71730;SDS011;65964;43.496;3.710;2023-12-22T10:02:37;2.45;;;1.40;;
71730;SDS011;65964;43.496;3.710;2023-12-22T10:05:03;0.70;;;0.50;;
71730;SDS011;65964;43.496;3.710;2023-12-22T10:07:30;4.25;;;1.35;;
71730;SDS011;65964;43.496;3.710;2023-12-22T10:09:56;3.33;;;1.40;;
71730;SDS011;65964;43.496;3.710;2023-12-22T10:12:22;7.82;;;1.70;;
71730;SDS011;65964;43.496;3.710;2023-12-22T10:14:50;2.28;;;1.23;;
71730;SDS011;65964;43.496;3.710;2023-12-22T10:17:17;3.22;;;1.00;;
71730;SDS011;65964;43.496;3.710;2023-12-22T10:19:43;1.15;;;0.85;;
71730;SDS011;65964;43.496;3.710;2023-12-22T10:22:09;1.75;;;0.70;;
71730;SDS011;65964;43.496;3.710;2023-12-22T10:24:42;3.28;;;1.10;;
71730;SDS011;65964;43.496;3.710;2023-12-22T10:27:09;2.78;;;1.00;;
71730;SDS011;65964;43.496;3.710;2023-12-22T10:29:35;2.60;;;0.88;;
71730;SDS011;65964;43.496;3.710;2023-12-22T10:32:02;2.80;;;1.48;;
71730;SDS011;65964;43.496;3.710;2023-12-22T10:34:29;4.78;;;1.45;;
71730;SDS011;65964;43.496;3.710;2023-12-22T10:36:55;1.17;;;0.80;;
71730;SDS011;65964;43.496;3.710;2023-12-22T10:39:21;2.00;;;0.70;;
71730;SDS011;65964;43.496;3.710;2023-12-22T10:41:50;2.78;;;0.90;;
71730;SDS011;65964;43.496;3.710;2023-12-22T10:44:16;4.55;;;1.50;;
71730;SDS011;65964;43.496;3.710;2023-12-22T10:46:42;3.90;;;1.20;;
71730;SDS011;65964;43.496;3.710;2023-12-22T10:49:09;7.18;;;1.60;;
71730;SDS011;65964;43.496;3.710;2023-12-22T10:51:35;1.38;;;0.80;;
71730;SDS011;65964;43.496;3.710;2023-12-22T10:54:02;6.22;;;1.77;;
71730;SDS011;65964;43.496;3.710;2023-12-22T10:56:30;5.70;;;2.50;;
71730;SDS011;65964;43.496;3.710;2023-12-22T10:58:56;4.63;;;2.50;;
71730;SDS011;65964;43.496;3.710;2023-12-22T11:01:23;2.25;;;1.70;;
71730;SDS011;65964;43.496;3.710;2023-12-22T11:03:51;6.63;;;3.13;;
71730;SDS011;65964;43.496;3.710;2023-12-22T11:06:18;2.33;;;1.17;;
71730;SDS011;65964;43.496;3.710;2023-12-22T11:08:45;4.95;;;1.50;;
71730;SDS011;65964;43.496;3.710;2023-12-22T11:11:33;4.70;;;1.60;;
71730;SDS011;65964;43.496;3.710;2023-12-22T11:14:02;8.18;;;2.30;;
71730;SDS011;65964;43.496;3.710;2023-12-22T11:16:28;4.93;;;1.67;;
71730;SDS011;65964;43.496;3.710;2023-12-22T11:18:55;6.20;;;2.10;;
71730;SDS011;65964;43.496;3.710;2023-12-22T11:21:22;4.70;;;1.70;;
71730;SDS011;65964;43.496;3.710;2023-12-22T11:23:49;3.90;;;1.73;;
71730;SDS011;65964;43.496;3.710;2023-12-22T11:26:16;4.55;;;1.98;;
71730;SDS011;65964;43.496;3.710;2023-12-22T11:28:43;3.20;;;1.60;;
71730;SDS011;65964;43.496;3.710;2023-12-22T11:31:10;2.63;;;1.52;;
71730;SDS011;65964;43.496;3.710;2023-12-22T11:33:37;15.23;;;2.20;;
71730;SDS011;65964;43.496;3.710;2023-12-22T11:36:05;4.80;;;1.40;;
71730;SDS011;65964;43.496;3.710;2023-12-22T11:38:32;2.40;;;1.45;;
71730;SDS011;65964;43.496;3.710;2023-12-22T11:40:59;3.38;;;1.60;;
71730;SDS011;65964;43.496;3.710;2023-12-22T11:43:26;2.35;;;1.42;;
71730;SDS011;65964;43.496;3.710;2023-12-22T11:45:52;2.47;;;1.40;;
71730;SDS011;65964;43.496;3.710;2023-12-22T11:48:18;2.05;;;1.20;;
71730;SDS011;65964;43.496;3.710;2023-12-22T11:50:45;1.58;;;0.93;;
71730;SDS011;65964;43.496;3.710;2023-12-22T11:53:18;3.47;;;1.27;;
71730;SDS011;65964;43.496;3.710;2023-12-22T11:56:04;4.35;;;1.20;;
71730;SDS011;65964;43.496;3.710;2023-12-22T11:58:32;1.85;;;1.13;;
71730;SDS011;65964;43.496;3.710;2023-12-22T12:01:00;4.47;;;1.50;;
71730;SDS011;65964;43.496;3.710;2023-12-22T12:03:29;3.35;;;1.10;;
71730;SDS011;65964;43.496;3.710;2023-12-22T12:08:44;2.47;;;1.13;;
71730;SDS011;65964;43.496;3.710;2023-12-22T12:11:10;0.88;;;0.63;;
71730;SDS011;65964;43.496;3.710;2023-12-22T12:13:38;1.20;;;0.95;;
71730;SDS011;65964;43.496;3.710;2023-12-22T12:16:05;2.20;;;1.15;;
71730;SDS011;65964;43.496;3.710;2023-12-22T12:18:32;2.90;;;1.05;;
71730;SDS011;65964;43.496;3.710;2023-12-22T12:21:00;0.50;;;0.50;;
71730;SDS011;65964;43.496;3.710;2023-12-22T12:23:26;1.48;;;0.77;;
71730;SDS011;65964;43.496;3.710;2023-12-22T12:25:52;3.20;;;1.70;;
71730;SDS011;65964;43.496;3.710;2023-12-22T12:28:24;2.33;;;1.10;;
71730;SDS011;65964;43.496;3.710;2023-12-22T12:30:54;5.43;;;1.20;;
71730;SDS011;65964;43.496;3.710;2023-12-22T12:33:23;4.63;;;1.40;;
71730;SDS011;65964;43.496;3.710;2023-12-22T12:35:49;1.52;;;0.90;;
71730;SDS011;65964;43.496;3.710;2023-12-22T12:38:16;2.03;;;0.82;;
71730;SDS011;65964;43.496;3.710;2023-12-22T12:40:43;2.22;;;1.00;;
71730;SDS011;65964;43.496;3.710;2023-12-22T12:43:11;2.53;;;1.20;;
71730;SDS011;65964;43.496;3.710;2023-12-22T12:45:37;2.28;;;0.80;;
71730;SDS011;65964;43.496;3.710;2023-12-22T12:48:03;2.47;;;1.08;;
71730;SDS011;65964;43.496;3.710;2023-12-22T12:50:29;1.90;;;0.85;;
71730;SDS011;65964;43.496;3.710;2023-12-22T12:52:58;1.48;;;1.02;;
71730;SDS011;65964;43.496;3.710;2023-12-22T12:55:25;1.77;;;1.10;;
71730;SDS011;65964;43.496;3.710;2023-12-22T12:57:51;3.13;;;1.08;;
71730;SDS011;65964;43.496;3.710;2023-12-22T13:00:27;7.18;;;1.90;;
71730;SDS011;65964;43.496;3.710;2023-12-22T13:02:57;13.38;;;1.80;;
71730;SDS011;65964;43.496;3.710;2023-12-22T13:05:25;5.45;;;1.27;;
71730;SDS011;65964;43.496;3.710;2023-12-22T13:07:51;1.27;;;1.00;;
71730;SDS011;65964;43.496;3.710;2023-12-22T13:10:21;2.00;;;0.90;;
71730;SDS011;65964;43.496;3.710;2023-12-22T13:12:48;0.90;;;0.50;;
71730;SDS011;65964;43.496;3.710;2023-12-22T13:15:15;1.20;;;0.90;;
71730;SDS011;65964;43.496;3.710;2023-12-22T13:17:42;3.17;;;0.98;;
71730;SDS011;65964;43.496;3.710;2023-12-22T13:20:09;3.80;;;0.95;;
71730;SDS011;65964;43.496;3.710;2023-12-22T13:22:35;0.60;;;0.60;;
71730;SDS011;65964;43.496;3.710;2023-12-22T13:25:01;1.70;;;1.00;;
71730;SDS011;65964;43.496;3.710;2023-12-22T13:27:27;1.27;;;0.50;;
71730;SDS011;65964;43.496;3.710;2023-12-22T13:29:53;3.20;;;0.80;;
71730;SDS011;65964;43.496;3.710;2023-12-22T13:32:20;0.60;;;0.60;;
71730;SDS011;65964;43.496;3.710;2023-12-22T13:34:55;1.63;;;1.10;;
71730;SDS011;65964;43.496;3.710;2023-12-22T13:37:22;1.58;;;1.02;;
71730;SDS011;65964;43.496;3.710;2023-12-22T13:39:51;7.00;;;3.20;;
71730;SDS011;65964;43.496;3.710;2023-12-22T13:42:17;9.02;;;3.13;;
71730;SDS011;65964;43.496;3.710;2023-12-22T13:44:48;7.30;;;2.72;;
71730;SDS011;65964;43.496;3.710;2023-12-22T13:47:15;4.25;;;1.90;;
71730;SDS011;65964;43.496;3.710;2023-12-22T13:49:42;4.03;;;1.88;;
71730;SDS011;65964;43.496;3.710;2023-12-22T13:52:23;4.85;;;1.45;;
71730;SDS011;65964;43.496;3.710;2023-12-22T13:54:50;5.90;;;1.90;;
71730;SDS011;65964;43.496;3.710;2023-12-22T13:57:20;3.03;;;0.75;;
71730;SDS011;65964;43.496;3.710;2023-12-22T13:59:49;3.22;;;2.00;;
71730;SDS011;65964;43.496;3.710;2023-12-22T14:02:18;2.83;;;1.90;;
71730;SDS011;65964;43.496;3.710;2023-12-22T14:04:44;7.65;;;2.40;;
71730;SDS011;65964;43.496;3.710;2023-12-22T14:07:10;3.88;;;1.50;;
71730;SDS011;65964;43.496;3.710;2023-12-22T14:09:36;3.53;;;2.00;;
71730;SDS011;65964;43.496;3.710;2023-12-22T14:12:03;1.33;;;1.10;;
71730;SDS011;65964;43.496;3.710;2023-12-22T14:14:30;2.92;;;1.77;;
71730;SDS011;65964;43.496;3.710;2023-12-22T14:16:56;3.45;;;1.40;;
71730;SDS011;65964;43.496;3.710;2023-12-22T14:19:22;2.92;;;1.50;;
71730;SDS011;65964;43.496;3.710;2023-12-22T14:21:48;5.78;;;1.73;;
71730;SDS011;65964;43.496;3.710;2023-12-22T14:24:14;3.38;;;1.67;;
71730;SDS011;65964;43.496;3.710;2023-12-22T14:26:55;3.90;;;1.50;;
71730;SDS011;65964;43.496;3.710;2023-12-22T14:29:22;1.92;;;1.10;;
71730;SDS011;65964;43.496;3.710;2023-12-22T14:31:49;0.80;;;0.80;;
71730;SDS011;65964;43.496;3.710;2023-12-22T14:34:15;1.23;;;0.75;;
71730;SDS011;65964;43.496;3.710;2023-12-22T14:36:42;2.45;;;1.02;;
71730;SDS011;65964;43.496;3.710;2023-12-22T14:39:08;2.63;;;0.82;;
71730;SDS011;65964;43.496;3.710;2023-12-22T14:41:36;3.60;;;1.65;;
71730;SDS011;65964;43.496;3.710;2023-12-22T14:44:02;6.85;;;3.17;;
71730;SDS011;65964;43.496;3.710;2023-12-22T14:46:28;2.75;;;1.38;;
71730;SDS011;65964;43.496;3.710;2023-12-22T14:48:54;4.18;;;1.63;;
71730;SDS011;65964;43.496;3.710;2023-12-22T14:51:20;1.77;;;0.98;;